sensor_id;sensor_type;location;lat;lon;timestamp;P1;durP1;ratioP1;P2;durP2;ratioP2
76576;SDS011;65441;44.748;37.600;2023-07-28T00:00:15;7.53;;;3.40;;
76576;SDS011;65441;44.748;37.600;2023-07-28T00:02:43;8.10;;;3.70;;
76576;SDS011;65441;44.748;37.600;2023-07-28T00:05:11;10.15;;;3.95;;
76576;SDS011;65441;44.748;37.600;2023-07-28T00:07:39;7.30;;;3.53;;
76576;SDS011;65441;44.748;37.600;2023-07-28T00:10:10;6.28;;;3.38;;
76576;SDS011;65441;44.748;37.600;2023-07-28T00:12:38;9.38;;;4.22;;
76576;SDS011;65441;44.748;37.600;2023-07-28T00:15:06;8.73;;;4.13;;
76576;SDS011;65441;44.748;37.600;2023-07-28T00:17:35;8.45;;;3.78;;
76576;SDS011;65441;44.748;37.600;2023-07-28T00:20:03;9.60;;;4.00;;
76576;SDS011;65441;44.748;37.600;2023-07-28T00:22:33;7.18;;;3.80;;
76576;SDS011;65441;44.748;37.600;2023-07-28T00:25:02;8.38;;;3.88;;
76576;SDS011;65441;44.748;37.600;2023-07-28T00:27:32;9.30;;;4.10;;
76576;SDS011;65441;44.748;37.600;2023-07-28T00:30:00;10.15;;;3.60;;
76576;SDS011;65441;44.748;37.600;2023-07-28T00:32:28;10.57;;;3.78;;
76576;SDS011;65441;44.748;37.600;2023-07-28T00:34:56;12.27;;;3.70;;
76576;SDS011;65441;44.748;37.600;2023-07-28T00:37:25;11.60;;;4.05;;
76576;SDS011;65441;44.748;37.600;2023-07-28T00:39:53;8.60;;;3.63;;
76576;SDS011;65441;44.748;37.600;2023-07-28T00:42:21;11.98;;;3.83;;
76576;SDS011;65441;44.748;37.600;2023-07-28T00:44:51;13.30;;;3.95;;
76576;SDS011;65441;44.748;37.600;2023-07-28T00:47:19;12.50;;;4.03;;
76576;SDS011;65441;44.748;37.600;2023-07-28T00:49:47;11.15;;;3.15;;
76576;SDS011;65441;44.748;37.600;2023-07-28T00:52:15;13.38;;;4.10;;
76576;SDS011;65441;44.748;37.600;2023-07-28T00:54:43;9.30;;;3.60;;
76576;SDS011;65441;44.748;37.600;2023-07-28T00:57:11;14.90;;;3.70;;
76576;SDS011;65441;44.748;37.600;2023-07-28T00:59:40;13.00;;;3.75;;
76576;SDS011;65441;44.748;37.600;2023-07-28T01:02:10;11.75;;;3.17;;
76576;SDS011;65441;44.748;37.600;2023-07-28T01:04:39;8.57;;;3.22;;
76576;SDS011;65441;44.748;37.600;2023-07-28T01:07:09;13.40;;;3.55;;
76576;SDS011;65441;44.748;37.600;2023-07-28T01:09:43;15.38;;;4.35;;
76576;SDS011;65441;44.748;37.600;2023-07-28T01:12:18;10.80;;;3.35;;
76576;SDS011;65441;44.748;37.600;2023-07-28T01:14:46;11.00;;;3.30;;
76576;SDS011;65441;44.748;37.600;2023-07-28T01:17:16;14.38;;;3.53;;
76576;SDS011;65441;44.748;37.600;2023-07-28T01:19:44;12.00;;;3.50;;
76576;SDS011;65441;44.748;37.600;2023-07-28T01:22:27;11.45;;;3.90;;
76576;SDS011;65441;44.748;37.600;2023-07-28T01:25:11;12.68;;;3.30;;
76576;SDS011;65441;44.748;37.600;2023-07-28T01:27:47;9.48;;;3.50;;
76576;SDS011;65441;44.748;37.600;2023-07-28T01:30:16;11.95;;;3.35;;
76576;SDS011;65441;44.748;37.600;2023-07-28T01:32:45;10.95;;;3.30;;
76576;SDS011;65441;44.748;37.600;2023-07-28T01:35:15;16.05;;;3.58;;
76576;SDS011;65441;44.748;37.600;2023-07-28T01:37:43;13.98;;;3.50;;
76576;SDS011;65441;44.748;37.600;2023-07-28T01:40:16;12.02;;;3.55;;
76576;SDS011;65441;44.748;37.600;2023-07-28T01:42:44;11.85;;;3.60;;
76576;SDS011;65441;44.748;37.600;2023-07-28T01:45:14;11.40;;;3.45;;
76576;SDS011;65441;44.748;37.600;2023-07-28T01:47:42;14.88;;;3.72;;
76576;SDS011;65441;44.748;37.600;2023-07-28T01:50:10;10.95;;;3.53;;
76576;SDS011;65441;44.748;37.600;2023-07-28T01:52:38;18.13;;;3.67;;
76576;SDS011;65441;44.748;37.600;2023-07-28T01:55:07;13.23;;;3.60;;
76576;SDS011;65441;44.748;37.600;2023-07-28T01:57:38;14.93;;;4.03;;
76576;SDS011;65441;44.748;37.600;2023-07-28T02:00:09;12.20;;;3.70;;
76576;SDS011;65441;44.748;37.600;2023-07-28T02:05:08;12.23;;;3.30;;
76576;SDS011;65441;44.748;37.600;2023-07-28T02:07:36;16.77;;;4.40;;
76576;SDS011;65441;44.748;37.600;2023-07-28T02:10:04;15.65;;;3.92;;
76576;SDS011;65441;44.748;37.600;2023-07-28T02:12:33;17.58;;;3.78;;
76576;SDS011;65441;44.748;37.600;2023-07-28T02:15:01;11.50;;;3.50;;
76576;SDS011;65441;44.748;37.600;2023-07-28T02:17:31;12.70;;;3.63;;
76576;SDS011;65441;44.748;37.600;2023-07-28T02:19:59;17.20;;;3.90;;
76576;SDS011;65441;44.748;37.600;2023-07-28T02:22:27;14.68;;;4.20;;
76576;SDS011;65441;44.748;37.600;2023-07-28T02:24:55;17.27;;;3.63;;
76576;SDS011;65441;44.748;37.600;2023-07-28T02:27:26;13.93;;;3.30;;
76576;SDS011;65441;44.748;37.600;2023-07-28T02:29:55;14.30;;;3.30;;
76576;SDS011;65441;44.748;37.600;2023-07-28T02:32:23;12.35;;;3.42;;
76576;SDS011;65441;44.748;37.600;2023-07-28T02:34:53;13.13;;;3.35;;
76576;SDS011;65441;44.748;37.600;2023-07-28T02:37:21;11.45;;;3.35;;
76576;SDS011;65441;44.748;37.600;2023-07-28T02:39:49;10.07;;;3.13;;
76576;SDS011;65441;44.748;37.600;2023-07-28T02:42:17;14.95;;;3.38;;
76576;SDS011;65441;44.748;37.600;2023-07-28T02:44:45;13.90;;;3.25;;
76576;SDS011;65441;44.748;37.600;2023-07-28T02:47:13;13.95;;;3.53;;
76576;SDS011;65441;44.748;37.600;2023-07-28T02:49:41;12.18;;;3.22;;
76576;SDS011;65441;44.748;37.600;2023-07-28T02:52:11;9.13;;;2.85;;
76576;SDS011;65441;44.748;37.600;2023-07-28T02:54:39;13.98;;;3.58;;
76576;SDS011;65441;44.748;37.600;2023-07-28T02:57:08;15.75;;;3.20;;
76576;SDS011;65441;44.748;37.600;2023-07-28T02:59:37;13.48;;;3.17;;
76576;SDS011;65441;44.748;37.600;2023-07-28T03:02:06;12.45;;;3.15;;
76576;SDS011;65441;44.748;37.600;2023-07-28T03:04:34;10.27;;;3.38;;
76576;SDS011;65441;44.748;37.600;2023-07-28T03:07:24;14.85;;;3.05;;
76576;SDS011;65441;44.748;37.600;2023-07-28T03:09:59;13.48;;;3.30;;
76576;SDS011;65441;44.748;37.600;2023-07-28T03:12:29;13.68;;;3.35;;
76576;SDS011;65441;44.748;37.600;2023-07-28T03:14:57;10.10;;;2.97;;
76576;SDS011;65441;44.748;37.600;2023-07-28T03:17:25;9.02;;;3.03;;
76576;SDS011;65441;44.748;37.600;2023-07-28T03:19:53;12.25;;;3.45;;
76576;SDS011;65441;44.748;37.600;2023-07-28T03:22:21;12.93;;;3.42;;
76576;SDS011;65441;44.748;37.600;2023-07-28T03:24:51;15.43;;;4.25;;
76576;SDS011;65441;44.748;37.600;2023-07-28T03:27:19;15.23;;;3.63;;
76576;SDS011;65441;44.748;37.600;2023-07-28T03:29:47;10.88;;;3.53;;
76576;SDS011;65441;44.748;37.600;2023-07-28T03:32:17;14.60;;;3.40;;
76576;SDS011;65441;44.748;37.600;2023-07-28T03:34:46;10.23;;;3.20;;
76576;SDS011;65441;44.748;37.600;2023-07-28T03:37:18;9.77;;;3.30;;
76576;SDS011;65441;44.748;37.600;2023-07-28T03:39:46;14.13;;;3.33;;
76576;SDS011;65441;44.748;37.600;2023-07-28T03:42:16;11.25;;;3.30;;
76576;SDS011;65441;44.748;37.600;2023-07-28T03:44:44;8.32;;;2.58;;
76576;SDS011;65441;44.748;37.600;2023-07-28T03:47:12;10.43;;;3.05;;
76576;SDS011;65441;44.748;37.600;2023-07-28T03:49:40;11.57;;;3.10;;
76576;SDS011;65441;44.748;37.600;2023-07-28T03:52:08;12.18;;;2.75;;
76576;SDS011;65441;44.748;37.600;2023-07-28T03:54:36;9.13;;;2.67;;
76576;SDS011;65441;44.748;37.600;2023-07-28T03:57:05;9.65;;;2.83;;
76576;SDS011;65441;44.748;37.600;2023-07-28T03:59:37;9.77;;;2.25;;
76576;SDS011;65441;44.748;37.600;2023-07-28T04:02:05;8.85;;;2.33;;
76576;SDS011;65441;44.748;37.600;2023-07-28T04:04:32;8.13;;;2.50;;
76576;SDS011;65441;44.748;37.600;2023-07-28T04:07:00;9.52;;;3.08;;
76576;SDS011;65441;44.748;37.600;2023-07-28T04:09:28;9.77;;;2.28;;
76576;SDS011;65441;44.748;37.600;2023-07-28T04:11:57;7.57;;;1.85;;
76576;SDS011;65441;44.748;37.600;2023-07-28T04:14:25;9.90;;;1.90;;
76576;SDS011;65441;44.748;37.600;2023-07-28T04:16:54;8.75;;;2.08;;
76576;SDS011;65441;44.748;37.600;2023-07-28T04:19:22;8.30;;;1.73;;
76576;SDS011;65441;44.748;37.600;2023-07-28T04:21:50;8.05;;;1.52;;
76576;SDS011;65441;44.748;37.600;2023-07-28T04:24:18;8.73;;;1.40;;
76576;SDS011;65441;44.748;37.600;2023-07-28T04:26:48;10.07;;;1.23;;
76576;SDS011;65441;44.748;37.600;2023-07-28T04:29:17;7.28;;;1.20;;
76576;SDS011;65441;44.748;37.600;2023-07-28T04:31:45;6.45;;;1.40;;
76576;SDS011;65441;44.748;37.600;2023-07-28T04:34:20;9.27;;;1.30;;
76576;SDS011;65441;44.748;37.600;2023-07-28T04:37:05;7.72;;;1.67;;
76576;SDS011;65441;44.748;37.600;2023-07-28T04:39:54;6.65;;;1.35;;
76576;SDS011;65441;44.748;37.600;2023-07-28T04:42:22;10.93;;;1.60;;
76576;SDS011;65441;44.748;37.600;2023-07-28T04:44:53;8.35;;;1.50;;
76576;SDS011;65441;44.748;37.600;2023-07-28T04:47:21;7.70;;;1.60;;
76576;SDS011;65441;44.748;37.600;2023-07-28T04:49:50;8.77;;;1.60;;
76576;SDS011;65441;44.748;37.600;2023-07-28T04:52:38;9.23;;;1.50;;
76576;SDS011;65441;44.748;37.600;2023-07-28T04:55:27;13.27;;;1.60;;
76576;SDS011;65441;44.748;37.600;2023-07-28T04:57:55;7.85;;;1.67;;
76576;SDS011;65441;44.748;37.600;2023-07-28T05:00:27;9.88;;;1.98;;
76576;SDS011;65441;44.748;37.600;2023-07-28T05:02:58;7.63;;;1.30;;
76576;SDS011;65441;44.748;37.600;2023-07-28T05:05:31;7.05;;;1.65;;
76576;SDS011;65441;44.748;37.600;2023-07-28T05:07:59;10.10;;;1.50;;
76576;SDS011;65441;44.748;37.600;2023-07-28T05:10:27;9.30;;;1.70;;
76576;SDS011;65441;44.748;37.600;2023-07-28T05:12:56;6.60;;;1.48;;
76576;SDS011;65441;44.748;37.600;2023-07-28T05:15:24;9.93;;;1.50;;
76576;SDS011;65441;44.748;37.600;2023-07-28T05:17:53;8.43;;;1.50;;
76576;SDS011;65441;44.748;37.600;2023-07-28T05:20:52;6.57;;;1.30;;
76576;SDS011;65441;44.748;37.600;2023-07-28T05:23:20;4.95;;;1.15;;
76576;SDS011;65441;44.748;37.600;2023-07-28T05:25:49;9.68;;;1.52;;
76576;SDS011;65441;44.748;37.600;2023-07-28T05:28:17;6.97;;;1.25;;
76576;SDS011;65441;44.748;37.600;2023-07-28T05:30:47;7.70;;;1.20;;
76576;SDS011;65441;44.748;37.600;2023-07-28T05:33:16;6.88;;;1.23;;
76576;SDS011;65441;44.748;37.600;2023-07-28T05:35:59;5.63;;;1.27;;
76576;SDS011;65441;44.748;37.600;2023-07-28T05:40:56;11.13;;;1.50;;
76576;SDS011;65441;44.748;37.600;2023-07-28T05:43:26;6.32;;;1.33;;
76576;SDS011;65441;44.748;37.600;2023-07-28T05:45:57;8.88;;;1.30;;
76576;SDS011;65441;44.748;37.600;2023-07-28T05:48:27;6.82;;;1.08;;
76576;SDS011;65441;44.748;37.600;2023-07-28T05:50:55;7.75;;;1.23;;
76576;SDS011;65441;44.748;37.600;2023-07-28T05:53:25;10.48;;;1.23;;
76576;SDS011;65441;44.748;37.600;2023-07-28T05:55:58;5.60;;;1.00;;
76576;SDS011;65441;44.748;37.600;2023-07-28T05:58:29;6.78;;;1.10;;
76576;SDS011;65441;44.748;37.600;2023-07-28T06:00:57;6.05;;;0.90;;
76576;SDS011;65441;44.748;37.600;2023-07-28T06:03:45;5.07;;;0.90;;
76576;SDS011;65441;44.748;37.600;2023-07-28T06:06:20;7.45;;;1.35;;
76576;SDS011;65441;44.748;37.600;2023-07-28T06:08:50;7.03;;;1.20;;
76576;SDS011;65441;44.748;37.600;2023-07-28T06:11:18;6.20;;;1.08;;
76576;SDS011;65441;44.748;37.600;2023-07-28T06:13:47;13.45;;;1.50;;
76576;SDS011;65441;44.748;37.600;2023-07-28T06:16:16;11.77;;;1.55;;
76576;SDS011;65441;44.748;37.600;2023-07-28T06:18:45;9.02;;;1.20;;
76576;SDS011;65441;44.748;37.600;2023-07-28T06:21:17;6.32;;;1.33;;
76576;SDS011;65441;44.748;37.600;2023-07-28T06:23:45;7.72;;;1.13;;
76576;SDS011;65441;44.748;37.600;2023-07-28T06:26:14;16.10;;;1.85;;
76576;SDS011;65441;44.748;37.600;2023-07-28T06:28:42;6.75;;;1.50;;
76576;SDS011;65441;44.748;37.600;2023-07-28T06:31:11;5.75;;;1.35;;
76576;SDS011;65441;44.748;37.600;2023-07-28T06:33:39;5.32;;;0.90;;
76576;SDS011;65441;44.748;37.600;2023-07-28T06:36:07;6.15;;;1.08;;
76576;SDS011;65441;44.748;37.600;2023-07-28T06:38:36;8.40;;;1.10;;
76576;SDS011;65441;44.748;37.600;2023-07-28T06:41:05;9.02;;;1.60;;
76576;SDS011;65441;44.748;37.600;2023-07-28T06:43:34;7.93;;;1.08;;
76576;SDS011;65441;44.748;37.600;2023-07-28T06:46:02;6.60;;;1.08;;
76576;SDS011;65441;44.748;37.600;2023-07-28T06:48:31;7.32;;;1.10;;
76576;SDS011;65441;44.748;37.600;2023-07-28T06:50:59;8.40;;;0.93;;
76576;SDS011;65441;44.748;37.600;2023-07-28T06:53:27;6.78;;;1.15;;
76576;SDS011;65441;44.748;37.600;2023-07-28T06:55:55;7.93;;;1.00;;
76576;SDS011;65441;44.748;37.600;2023-07-28T06:58:24;7.82;;;0.90;;
76576;SDS011;65441;44.748;37.600;2023-07-28T07:00:53;4.45;;;1.00;;
76576;SDS011;65441;44.748;37.600;2023-07-28T07:03:23;6.70;;;1.02;;
76576;SDS011;65441;44.748;37.600;2023-07-28T07:05:51;7.22;;;1.10;;
76576;SDS011;65441;44.748;37.600;2023-07-28T07:08:19;6.22;;;0.98;;
76576;SDS011;65441;44.748;37.600;2023-07-28T07:10:48;5.28;;;0.90;;
76576;SDS011;65441;44.748;37.600;2023-07-28T07:13:21;4.68;;;0.70;;
76576;SDS011;65441;44.748;37.600;2023-07-28T07:15:49;4.78;;;0.90;;
76576;SDS011;65441;44.748;37.600;2023-07-28T07:18:18;6.03;;;0.88;;
76576;SDS011;65441;44.748;37.600;2023-07-28T07:20:46;4.70;;;0.90;;
76576;SDS011;65441;44.748;37.600;2023-07-28T07:23:14;6.65;;;1.38;;
76576;SDS011;65441;44.748;37.600;2023-07-28T07:25:42;4.43;;;0.60;;
76576;SDS011;65441;44.748;37.600;2023-07-28T07:28:11;6.45;;;1.50;;
76576;SDS011;65441;44.748;37.600;2023-07-28T07:30:39;5.45;;;1.00;;
76576;SDS011;65441;44.748;37.600;2023-07-28T07:33:07;3.70;;;0.52;;
76576;SDS011;65441;44.748;37.600;2023-07-28T07:35:37;2.75;;;0.60;;
76576;SDS011;65441;44.748;37.600;2023-07-28T07:38:05;5.20;;;0.60;;
76576;SDS011;65441;44.748;37.600;2023-07-28T07:40:35;5.47;;;0.85;;
76576;SDS011;65441;44.748;37.600;2023-07-28T07:43:03;4.47;;;0.85;;
76576;SDS011;65441;44.748;37.600;2023-07-28T07:45:32;5.13;;;0.68;;
76576;SDS011;65441;44.748;37.600;2023-07-28T07:48:00;6.90;;;1.10;;
76576;SDS011;65441;44.748;37.600;2023-07-28T07:50:29;3.20;;;0.70;;
76576;SDS011;65441;44.748;37.600;2023-07-28T07:52:59;4.38;;;0.63;;
76576;SDS011;65441;44.748;37.600;2023-07-28T07:55:27;4.43;;;0.80;;
76576;SDS011;65441;44.748;37.600;2023-07-28T07:57:57;3.42;;;0.75;;
76576;SDS011;65441;44.748;37.600;2023-07-28T08:00:28;4.88;;;0.90;;
76576;SDS011;65441;44.748;37.600;2023-07-28T08:02:56;4.45;;;0.60;;
76576;SDS011;65441;44.748;37.600;2023-07-28T08:05:24;4.50;;;0.77;;
76576;SDS011;65441;44.748;37.600;2023-07-28T08:07:54;6.68;;;0.85;;
76576;SDS011;65441;44.748;37.600;2023-07-28T08:10:24;2.58;;;0.55;;
76576;SDS011;65441;44.748;37.600;2023-07-28T08:12:52;4.03;;;0.90;;
76576;SDS011;65441;44.748;37.600;2023-07-28T08:15:21;2.35;;;0.47;;
76576;SDS011;65441;44.748;37.600;2023-07-28T08:17:49;7.00;;;0.68;;
76576;SDS011;65441;44.748;37.600;2023-07-28T08:20:20;2.75;;;0.40;;
76576;SDS011;65441;44.748;37.600;2023-07-28T08:22:48;2.38;;;0.50;;
76576;SDS011;65441;44.748;37.600;2023-07-28T08:25:18;5.68;;;0.50;;
76576;SDS011;65441;44.748;37.600;2023-07-28T08:27:50;3.72;;;0.50;;
76576;SDS011;65441;44.748;37.600;2023-07-28T08:30:21;3.40;;;0.50;;
76576;SDS011;65441;44.748;37.600;2023-07-28T08:32:49;4.60;;;0.90;;
76576;SDS011;65441;44.748;37.600;2023-07-28T08:35:17;4.53;;;0.77;;
76576;SDS011;65441;44.748;37.600;2023-07-28T08:37:48;3.58;;;0.95;;
76576;SDS011;65441;44.748;37.600;2023-07-28T08:40:16;8.18;;;0.70;;
76576;SDS011;65441;44.748;37.600;2023-07-28T08:42:45;7.30;;;0.70;;
76576;SDS011;65441;44.748;37.600;2023-07-28T08:45:15;5.07;;;0.68;;
76576;SDS011;65441;44.748;37.600;2023-07-28T08:47:44;1.60;;;0.63;;
76576;SDS011;65441;44.748;37.600;2023-07-28T08:50:13;7.50;;;0.73;;
76576;SDS011;65441;44.748;37.600;2023-07-28T08:52:41;4.55;;;0.77;;
76576;SDS011;65441;44.748;37.600;2023-07-28T08:55:10;1.92;;;0.50;;
76576;SDS011;65441;44.748;37.600;2023-07-28T08:57:39;5.22;;;0.70;;
76576;SDS011;65441;44.748;37.600;2023-07-28T09:00:08;5.50;;;0.60;;
76576;SDS011;65441;44.748;37.600;2023-07-28T09:02:41;3.83;;;0.57;;
76576;SDS011;65441;44.748;37.600;2023-07-28T09:05:16;3.92;;;0.70;;
76576;SDS011;65441;44.748;37.600;2023-07-28T09:07:45;2.53;;;0.85;;
76576;SDS011;65441;44.748;37.600;2023-07-28T09:10:14;5.60;;;0.85;;
76576;SDS011;65441;44.748;37.600;2023-07-28T09:12:45;8.73;;;1.20;;
76576;SDS011;65441;44.748;37.600;2023-07-28T09:15:14;2.85;;;0.85;;
76576;SDS011;65441;44.748;37.600;2023-07-28T09:17:45;2.47;;;0.65;;
76576;SDS011;65441;44.748;37.600;2023-07-28T09:20:13;5.55;;;0.77;;
76576;SDS011;65441;44.748;37.600;2023-07-28T09:22:42;3.10;;;0.70;;
76576;SDS011;65441;44.748;37.600;2023-07-28T09:25:14;3.10;;;0.70;;
76576;SDS011;65441;44.748;37.600;2023-07-28T09:27:49;2.72;;;0.60;;
76576;SDS011;65441;44.748;37.600;2023-07-28T09:30:18;2.97;;;0.80;;
76576;SDS011;65441;44.748;37.600;2023-07-28T09:32:49;4.15;;;0.70;;
76576;SDS011;65441;44.748;37.600;2023-07-28T09:35:18;3.00;;;0.60;;
76576;SDS011;65441;44.748;37.600;2023-07-28T09:37:48;5.80;;;0.65;;
76576;SDS011;65441;44.748;37.600;2023-07-28T09:40:19;2.97;;;0.95;;
76576;SDS011;65441;44.748;37.600;2023-07-28T09:42:49;9.52;;;0.90;;
76576;SDS011;65441;44.748;37.600;2023-07-28T09:45:20;5.18;;;0.60;;
76576;SDS011;65441;44.748;37.600;2023-07-28T09:47:50;4.95;;;0.70;;
76576;SDS011;65441;44.748;37.600;2023-07-28T09:50:23;7.50;;;1.00;;
76576;SDS011;65441;44.748;37.600;2023-07-28T09:52:54;3.08;;;0.57;;
76576;SDS011;65441;44.748;37.600;2023-07-28T09:55:26;3.03;;;0.77;;
76576;SDS011;65441;44.748;37.600;2023-07-28T09:57:55;2.17;;;0.52;;
76576;SDS011;65441;44.748;37.600;2023-07-28T10:00:25;1.77;;;0.47;;
76576;SDS011;65441;44.748;37.600;2023-07-28T10:02:55;2.85;;;0.60;;
76576;SDS011;65441;44.748;37.600;2023-07-28T10:05:25;2.47;;;0.45;;
76576;SDS011;65441;44.748;37.600;2023-07-28T10:07:54;5.38;;;0.68;;
76576;SDS011;65441;44.748;37.600;2023-07-28T10:10:22;5.07;;;0.60;;
76576;SDS011;65441;44.748;37.600;2023-07-28T10:12:51;4.00;;;0.50;;
76576;SDS011;65441;44.748;37.600;2023-07-28T10:15:20;2.88;;;0.60;;
76576;SDS011;65441;44.748;37.600;2023-07-28T10:17:50;1.75;;;0.50;;
76576;SDS011;65441;44.748;37.600;2023-07-28T10:20:29;2.65;;;0.60;;
76576;SDS011;65441;44.748;37.600;2023-07-28T10:23:02;2.08;;;0.68;;
76576;SDS011;65441;44.748;37.600;2023-07-28T10:25:32;3.03;;;0.47;;
76576;SDS011;65441;44.748;37.600;2023-07-28T10:28:01;3.22;;;0.68;;
76576;SDS011;65441;44.748;37.600;2023-07-28T10:30:34;11.82;;;0.95;;
76576;SDS011;65441;44.748;37.600;2023-07-28T10:33:04;2.88;;;0.60;;
76576;SDS011;65441;44.748;37.600;2023-07-28T10:35:34;4.40;;;0.60;;
76576;SDS011;65441;44.748;37.600;2023-07-28T10:41:06;2.42;;;0.43;;
76576;SDS011;65441;44.748;37.600;2023-07-28T10:43:38;3.45;;;0.50;;
76576;SDS011;65441;44.748;37.600;2023-07-28T10:46:07;2.25;;;0.40;;
76576;SDS011;65441;44.748;37.600;2023-07-28T10:48:36;2.40;;;0.75;;
76576;SDS011;65441;44.748;37.600;2023-07-28T10:51:10;3.30;;;0.50;;
76576;SDS011;65441;44.748;37.600;2023-07-28T10:53:38;3.58;;;0.60;;
76576;SDS011;65441;44.748;37.600;2023-07-28T10:56:06;2.47;;;0.73;;
76576;SDS011;65441;44.748;37.600;2023-07-28T10:58:36;3.97;;;0.50;;
76576;SDS011;65441;44.748;37.600;2023-07-28T11:01:04;3.05;;;0.70;;
76576;SDS011;65441;44.748;37.600;2023-07-28T11:03:33;6.60;;;0.70;;
76576;SDS011;65441;44.748;37.600;2023-07-28T11:06:03;3.63;;;0.50;;
76576;SDS011;65441;44.748;37.600;2023-07-28T11:08:33;1.55;;;0.52;;
76576;SDS011;65441;44.748;37.600;2023-07-28T11:11:04;1.00;;;0.40;;
76576;SDS011;65441;44.748;37.600;2023-07-28T11:13:33;1.15;;;0.50;;
76576;SDS011;65441;44.748;37.600;2023-07-28T11:16:01;1.90;;;0.50;;
76576;SDS011;65441;44.748;37.600;2023-07-28T11:18:30;2.42;;;0.60;;
76576;SDS011;65441;44.748;37.600;2023-07-28T11:20:59;5.28;;;0.68;;
76576;SDS011;65441;44.748;37.600;2023-07-28T11:23:27;1.27;;;0.57;;
76576;SDS011;65441;44.748;37.600;2023-07-28T11:25:57;1.90;;;0.40;;
76576;SDS011;65441;44.748;37.600;2023-07-28T11:28:26;2.08;;;0.45;;
76576;SDS011;65441;44.748;37.600;2023-07-28T11:30:55;2.85;;;0.52;;
76576;SDS011;65441;44.748;37.600;2023-07-28T11:33:23;1.42;;;0.50;;
76576;SDS011;65441;44.748;37.600;2023-07-28T11:35:52;2.42;;;0.70;;
76576;SDS011;65441;44.748;37.600;2023-07-28T11:38:20;3.22;;;0.52;;
76576;SDS011;65441;44.748;37.600;2023-07-28T11:40:49;2.33;;;0.55;;
76576;SDS011;65441;44.748;37.600;2023-07-28T11:43:19;4.82;;;0.50;;
76576;SDS011;65441;44.748;37.600;2023-07-28T11:45:50;3.97;;;0.70;;
76576;SDS011;65441;44.748;37.600;2023-07-28T11:48:18;3.35;;;0.63;;
76576;SDS011;65441;44.748;37.600;2023-07-28T11:50:46;2.38;;;0.50;;
76576;SDS011;65441;44.748;37.600;2023-07-28T11:53:16;1.50;;;0.50;;
76576;SDS011;65441;44.748;37.600;2023-07-28T11:55:45;5.22;;;0.50;;
76576;SDS011;65441;44.748;37.600;2023-07-28T11:58:14;2.97;;;0.70;;
76576;SDS011;65441;44.748;37.600;2023-07-28T12:00:43;3.63;;;0.60;;
76576;SDS011;65441;44.748;37.600;2023-07-28T12:03:11;1.25;;;0.43;;
76576;SDS011;65441;44.748;37.600;2023-07-28T12:05:41;0.90;;;0.45;;
76576;SDS011;65441;44.748;37.600;2023-07-28T12:11:01;3.92;;;0.73;;
76576;SDS011;65441;44.748;37.600;2023-07-28T12:13:29;3.45;;;0.50;;
76576;SDS011;65441;44.748;37.600;2023-07-28T12:15:58;1.67;;;0.70;;
76576;SDS011;65441;44.748;37.600;2023-07-28T12:18:29;3.72;;;0.60;;
76576;SDS011;65441;44.748;37.600;2023-07-28T12:20:57;1.08;;;0.50;;
76576;SDS011;65441;44.748;37.600;2023-07-28T12:23:26;2.40;;;0.57;;
76576;SDS011;65441;44.748;37.600;2023-07-28T12:25:54;2.53;;;0.70;;
76576;SDS011;65441;44.748;37.600;2023-07-28T12:28:24;4.53;;;0.60;;
76576;SDS011;65441;44.748;37.600;2023-07-28T12:30:52;5.07;;;0.73;;
76576;SDS011;65441;44.748;37.600;2023-07-28T12:33:23;2.38;;;0.70;;
76576;SDS011;65441;44.748;37.600;2023-07-28T12:35:51;3.55;;;0.50;;
76576;SDS011;65441;44.748;37.600;2023-07-28T12:38:21;2.25;;;0.60;;
76576;SDS011;65441;44.748;37.600;2023-07-28T12:40:49;2.63;;;0.60;;
76576;SDS011;65441;44.748;37.600;2023-07-28T12:43:18;3.60;;;0.73;;
76576;SDS011;65441;44.748;37.600;2023-07-28T12:45:46;4.30;;;0.70;;
76576;SDS011;65441;44.748;37.600;2023-07-28T12:48:14;3.42;;;0.70;;
76576;SDS011;65441;44.748;37.600;2023-07-28T12:50:44;4.57;;;0.90;;
76576;SDS011;65441;44.748;37.600;2023-07-28T12:53:12;2.72;;;0.50;;
76576;SDS011;65441;44.748;37.600;2023-07-28T12:55:40;4.63;;;0.70;;
76576;SDS011;65441;44.748;37.600;2023-07-28T12:58:08;1.92;;;0.65;;
76576;SDS011;65441;44.748;37.600;2023-07-28T13:00:42;2.25;;;0.70;;
76576;SDS011;65441;44.748;37.600;2023-07-28T13:03:10;2.40;;;0.65;;
76576;SDS011;65441;44.748;37.600;2023-07-28T13:05:38;2.38;;;0.50;;
76576;SDS011;65441;44.748;37.600;2023-07-28T13:08:10;3.50;;;0.70;;
76576;SDS011;65441;44.748;37.600;2023-07-28T13:10:39;4.75;;;0.65;;
76576;SDS011;65441;44.748;37.600;2023-07-28T13:13:07;2.38;;;0.93;;
76576;SDS011;65441;44.748;37.600;2023-07-28T13:15:35;2.13;;;0.68;;
76576;SDS011;65441;44.748;37.600;2023-07-28T13:18:03;3.65;;;0.65;;
76576;SDS011;65441;44.748;37.600;2023-07-28T13:20:31;2.80;;;0.70;;
76576;SDS011;65441;44.748;37.600;2023-07-28T13:22:59;1.88;;;0.50;;
76576;SDS011;65441;44.748;37.600;2023-07-28T13:25:29;1.35;;;0.50;;
76576;SDS011;65441;44.748;37.600;2023-07-28T13:27:57;2.42;;;0.52;;
76576;SDS011;65441;44.748;37.600;2023-07-28T13:30:25;3.17;;;0.70;;
76576;SDS011;65441;44.748;37.600;2023-07-28T13:32:53;2.72;;;0.60;;
76576;SDS011;65441;44.748;37.600;2023-07-28T13:35:22;3.55;;;0.63;;
76576;SDS011;65441;44.748;37.600;2023-07-28T13:37:51;2.08;;;0.70;;
76576;SDS011;65441;44.748;37.600;2023-07-28T13:40:19;1.42;;;0.50;;
76576;SDS011;65441;44.748;37.600;2023-07-28T13:42:48;1.80;;;0.60;;
76576;SDS011;65441;44.748;37.600;2023-07-28T13:45:17;2.55;;;0.60;;
76576;SDS011;65441;44.748;37.600;2023-07-28T13:47:45;3.15;;;0.60;;
76576;SDS011;65441;44.748;37.600;2023-07-28T13:50:13;1.65;;;0.60;;
76576;SDS011;65441;44.748;37.600;2023-07-28T13:52:41;1.88;;;0.60;;
76576;SDS011;65441;44.748;37.600;2023-07-28T13:55:10;3.70;;;1.00;;
76576;SDS011;65441;44.748;37.600;2023-07-28T13:57:38;4.25;;;0.60;;
76576;SDS011;65441;44.748;37.600;2023-07-28T14:00:09;2.15;;;0.50;;
76576;SDS011;65441;44.748;37.600;2023-07-28T14:02:38;2.38;;;0.60;;
76576;SDS011;65441;44.748;37.600;2023-07-28T14:05:07;2.58;;;0.70;;
76576;SDS011;65441;44.748;37.600;2023-07-28T14:07:35;3.33;;;0.60;;
76576;SDS011;65441;44.748;37.600;2023-07-28T14:10:04;5.53;;;0.85;;
76576;SDS011;65441;44.748;37.600;2023-07-28T14:12:33;10.18;;;1.20;;
76576;SDS011;65441;44.748;37.600;2023-07-28T14:15:01;5.05;;;0.70;;
76576;SDS011;65441;44.748;37.600;2023-07-28T14:17:30;5.15;;;0.60;;
76576;SDS011;65441;44.748;37.600;2023-07-28T14:19:59;4.07;;;0.70;;
76576;SDS011;65441;44.748;37.600;2023-07-28T14:22:27;3.20;;;0.85;;
76576;SDS011;65441;44.748;37.600;2023-07-28T14:24:55;1.42;;;0.50;;
76576;SDS011;65441;44.748;37.600;2023-07-28T14:27:23;3.25;;;0.68;;
76576;SDS011;65441;44.748;37.600;2023-07-28T14:29:51;1.77;;;0.60;;
76576;SDS011;65441;44.748;37.600;2023-07-28T14:32:19;2.22;;;0.70;;
76576;SDS011;65441;44.748;37.600;2023-07-28T14:34:49;4.20;;;0.70;;
76576;SDS011;65441;44.748;37.600;2023-07-28T14:37:17;2.50;;;0.70;;
76576;SDS011;65441;44.748;37.600;2023-07-28T14:39:45;3.38;;;0.70;;
76576;SDS011;65441;44.748;37.600;2023-07-28T14:42:13;4.03;;;0.80;;
76576;SDS011;65441;44.748;37.600;2023-07-28T14:44:42;3.33;;;0.60;;
76576;SDS011;65441;44.748;37.600;2023-07-28T14:47:10;4.13;;;0.77;;
76576;SDS011;65441;44.748;37.600;2023-07-28T14:49:38;5.65;;;1.30;;
76576;SDS011;65441;44.748;37.600;2023-07-28T14:52:08;3.70;;;0.73;;
76576;SDS011;65441;44.748;37.600;2023-07-28T14:54:37;6.40;;;0.70;;